createdAt,value
2024-05-09T00:01:40.809Z,58.23
2024-05-09T00:04:25.528Z,58.07
2024-05-09T00:07:10.475Z,57.55
2024-05-09T00:09:55.371Z,57.42
2024-05-09T00:12:40.438Z,57.37
2024-05-09T00:15:25.346Z,58.01
2024-05-09T00:18:10.558Z,58.57
2024-05-09T00:20:55.453Z,58.68
2024-05-09T00:23:40.564Z,58.69
2024-05-09T00:26:25.443Z,58.40
2024-05-09T00:29:10.278Z,58.34
2024-05-09T00:31:55.264Z,58.25
2024-05-09T00:34:40.069Z,58.27
2024-05-09T00:37:25.205Z,58.00
2024-05-09T00:40:18.273Z,58.40
2024-05-09T00:43:07.739Z,57.70
2024-05-09T00:45:52.640Z,57.53
2024-05-09T00:48:37.581Z,57.90
2024-05-09T00:51:22.475Z,57.54
2024-05-09T00:54:07.514Z,57.41
2024-05-09T00:56:52.488Z,56.97
2024-05-09T00:59:37.647Z,57.09
2024-05-09T01:02:22.560Z,57.07
2024-05-09T01:05:07.463Z,57.85
2024-05-09T01:07:52.490Z,57.48
2024-05-09T01:10:37.420Z,57.49
2024-05-09T01:13:22.387Z,58.25
2024-05-09T01:16:07.305Z,58.39
2024-05-09T01:18:52.461Z,57.80
2024-05-09T01:21:37.387Z,57.54
2024-05-09T01:24:22.278Z,58.19
2024-05-09T01:27:07.455Z,58.27
2024-05-09T01:29:52.414Z,57.78
2024-05-09T01:32:37.509Z,57.98
2024-05-09T01:35:22.317Z,57.63
2024-05-09T01:38:07.358Z,57.50
2024-05-09T01:40:52.153Z,57.79
2024-05-09T01:43:37.099Z,58.22
2024-05-09T01:46:22.172Z,58.08
2024-05-09T01:49:07.378Z,58.65
2024-05-09T01:51:52.165Z,58.85
2024-05-09T01:54:37.052Z,59.03
2024-05-09T01:57:22.081Z,58.13
2024-05-09T02:00:07.976Z,58.47
2024-05-09T02:02:53.206Z,58.87
2024-05-09T02:05:38.832Z,59.15
2024-05-09T02:08:23.869Z,59.37
2024-05-09T02:11:09.026Z,59.19
2024-05-09T02:13:53.928Z,59.37
2024-05-09T02:16:39.034Z,60.12
2024-05-09T02:19:24.018Z,59.66
2024-05-09T02:22:08.912Z,59.66
2024-05-09T02:24:53.872Z,60.40
2024-05-09T02:27:38.932Z,60.10
2024-05-09T02:30:31.079Z,59.78
2024-05-09T02:33:23.946Z,59.80
2024-05-09T02:36:09.129Z,59.89
2024-05-09T02:38:54.012Z,60.56
2024-05-09T02:41:39.105Z,59.15
2024-05-09T02:44:23.894Z,59.38
2024-05-09T02:47:09.058Z,59.36
2024-05-09T02:49:53.928Z,59.87
2024-05-09T02:52:38.904Z,59.86
2024-05-09T02:55:23.904Z,59.13
2024-05-09T02:58:08.885Z,59.05
2024-05-09T03:00:53.833Z,58.76
2024-05-09T03:03:38.871Z,58.69
2024-05-09T03:06:23.786Z,59.97
2024-05-09T03:09:08.698Z,60.34
2024-05-09T03:11:53.890Z,59.46
2024-05-09T03:14:38.856Z,59.08
2024-05-09T03:17:23.968Z,59.08
2024-05-09T03:20:14.848Z,58.96
2024-05-09T03:23:06.090Z,60.64
2024-05-09T03:25:51.594Z,59.89
2024-05-09T03:28:36.535Z,60.17
2024-05-09T03:31:21.498Z,59.93
2024-05-09T03:34:06.487Z,60.53
2024-05-09T03:36:51.398Z,59.60
2024-05-09T03:39:36.407Z,60.32
2024-05-09T03:42:21.451Z,60.01
2024-05-09T03:45:06.501Z,59.59
2024-05-09T03:47:51.710Z,59.42
2024-05-09T03:50:37.503Z,59.20
2024-05-09T03:53:23.087Z,59.93
2024-05-09T03:56:08.000Z,59.91
2024-05-09T03:58:52.925Z,61.02
2024-05-09T04:01:38.021Z,60.92
2024-05-09T04:04:23.115Z,59.75
2024-05-09T04:07:08.034Z,59.44
2024-05-09T04:09:53.067Z,59.99
2024-05-09T04:12:38.141Z,59.68
2024-05-09T04:15:23.054Z,59.04
2024-05-09T04:18:08.296Z,59.01
2024-05-09T04:20:53.636Z,58.86
2024-05-09T04:23:38.581Z,59.40
2024-05-09T04:26:23.727Z,58.01
2024-05-09T04:29:08.686Z,58.12
2024-05-09T04:31:53.809Z,58.50
2024-05-09T04:34:38.711Z,58.30
2024-05-09T04:37:23.715Z,58.17
2024-05-09T04:40:14.178Z,57.63
2024-05-09T04:43:05.946Z,58.00
2024-05-09T04:45:51.198Z,57.66
2024-05-09T04:48:36.430Z,58.56
2024-05-09T04:51:21.132Z,59.02
2024-05-09T04:54:08.456Z,58.96
2024-05-09T04:56:55.627Z,59.04
2024-05-09T04:59:40.576Z,59.16
2024-05-09T05:02:25.485Z,58.67
2024-05-09T05:05:11.927Z,58.76
2024-05-09T05:07:56.872Z,57.82
2024-05-09T05:10:41.620Z,58.73
2024-05-09T05:13:26.690Z,59.85
2024-05-09T05:16:11.603Z,58.49
2024-05-09T05:18:56.592Z,57.92
2024-05-09T05:21:41.419Z,57.47
2024-05-09T05:24:26.244Z,56.98
2024-05-09T05:27:11.255Z,58.37
2024-05-09T05:29:56.174Z,58.44
2024-05-09T05:32:41.356Z,56.81
2024-05-09T05:35:26.656Z,55.75
2024-05-09T05:38:11.687Z,55.08
2024-05-09T05:40:56.811Z,55.92
2024-05-09T05:43:42.144Z,54.99
2024-05-09T05:46:27.063Z,55.80
2024-05-09T05:49:12.258Z,53.96
2024-05-09T05:51:57.669Z,52.98
2024-05-09T05:54:42.577Z,53.65
2024-05-09T05:57:27.714Z,53.31
2024-05-09T06:00:21.382Z,52.17
2024-05-09T06:03:10.949Z,51.09
2024-05-09T06:05:56.088Z,52.95
2024-05-09T06:08:40.942Z,53.12
2024-05-09T06:11:26.183Z,53.91
2024-05-09T06:14:10.984Z,54.43
2024-05-09T06:16:58.097Z,52.68
2024-05-09T06:19:43.406Z,52.34
2024-05-09T06:22:28.322Z,51.35
2024-05-09T06:25:13.276Z,52.29
2024-05-09T06:27:58.274Z,53.32
2024-05-09T06:30:43.557Z,55.55
2024-05-09T06:33:29.024Z,54.88
2024-05-09T06:36:14.271Z,55.10
2024-05-09T06:38:59.083Z,54.80
2024-05-09T06:41:44.133Z,53.64
2024-05-09T06:44:29.111Z,51.67
2024-05-09T06:47:14.142Z,51.98
2024-05-09T06:49:59.439Z,53.24
2024-05-09T06:52:44.514Z,52.83
2024-05-09T06:55:29.481Z,51.90
2024-05-09T06:58:14.458Z,52.88
2024-05-09T07:00:59.519Z,53.41
2024-05-09T07:03:44.563Z,53.78
2024-05-09T07:06:29.393Z,53.05
2024-05-09T07:09:14.342Z,52.55
2024-05-09T07:11:59.563Z,51.61
2024-05-09T07:14:44.537Z,52.26
2024-05-09T07:17:29.544Z,52.45
2024-05-09T07:20:22.945Z,51.23
2024-05-09T07:23:12.796Z,52.95
2024-05-09T07:25:58.120Z,52.86
2024-05-09T07:28:43.032Z,52.30
2024-05-09T07:31:27.961Z,52.37
2024-05-09T07:34:13.034Z,53.59
2024-05-09T07:36:57.862Z,51.69
2024-05-09T07:39:42.648Z,53.05
2024-05-09T07:42:27.586Z,52.60
2024-05-09T07:45:29.827Z,53.45
2024-05-09T07:53:56.164Z,49.49
2024-05-09T07:56:43.983Z,48.11
2024-05-09T07:59:29.182Z,48.32
2024-05-09T08:02:14.409Z,49.59
2024-05-09T08:04:59.483Z,50.68
2024-05-09T08:07:44.379Z,50.83
2024-05-09T08:10:29.589Z,51.28
2024-05-09T08:13:14.399Z,50.75
2024-05-09T08:15:59.357Z,48.95
2024-05-09T08:18:44.420Z,49.77
2024-05-09T08:21:29.360Z,49.74
2024-05-09T08:24:14.365Z,48.17
2024-05-09T08:26:59.379Z,49.38
2024-05-09T08:29:45.375Z,50.69
2024-05-09T08:32:30.555Z,48.60
2024-05-09T08:35:15.630Z,49.74
2024-05-09T08:38:00.644Z,49.54
2024-05-09T08:40:45.843Z,49.39
2024-05-09T08:43:30.845Z,48.87
2024-05-09T08:46:15.890Z,50.39
2024-05-09T08:49:01.118Z,48.31
2024-05-09T08:51:46.429Z,48.26
2024-05-09T08:54:31.517Z,46.01
2024-05-09T08:57:16.496Z,46.81
2024-05-09T09:00:01.464Z,47.33
2024-05-09T09:02:46.463Z,47.83
2024-05-09T09:05:31.984Z,48.24
2024-05-09T09:08:17.497Z,49.38
2024-05-09T09:11:02.319Z,46.13
2024-05-09T09:13:47.492Z,45.37
2024-05-09T09:16:32.520Z,46.00
2024-05-09T09:19:17.697Z,45.36
2024-05-09T09:22:02.590Z,42.24
2024-05-09T09:24:47.507Z,45.36
2024-05-09T09:27:32.634Z,47.84
2024-05-09T09:30:31.413Z,48.05
2024-05-09T09:33:21.939Z,46.94
2024-05-09T09:36:08.964Z,46.50
2024-05-09T09:38:55.221Z,44.60
2024-05-09T09:41:40.237Z,44.06
2024-05-09T09:44:25.114Z,43.04
2024-05-09T09:47:10.217Z,42.44
2024-05-09T09:49:55.210Z,43.94
2024-05-09T09:52:40.161Z,45.25
2024-05-09T09:55:25.227Z,41.66
2024-05-09T09:58:13.257Z,42.96
2024-05-09T10:00:59.483Z,41.27
2024-05-09T10:03:44.647Z,40.83
2024-05-09T10:06:29.481Z,41.62
2024-05-09T10:09:14.547Z,41.25
2024-05-09T10:12:00.414Z,42.22
2024-05-09T10:14:45.950Z,44.53
2024-05-09T10:17:31.108Z,42.28
2024-05-09T10:20:21.838Z,38.75
2024-05-09T10:23:10.521Z,40.85
2024-05-09T10:25:55.516Z,40.46
2024-05-09T10:28:40.508Z,42.12
2024-05-09T10:31:25.563Z,42.52
2024-05-09T10:34:10.676Z,43.29
2024-05-09T10:36:55.822Z,44.52
2024-05-09T10:39:41.136Z,44.61
2024-05-09T10:42:26.097Z,42.46
2024-05-09T10:45:10.976Z,44.75
2024-05-09T10:47:56.183Z,43.50
2024-05-09T10:50:41.068Z,40.52
2024-05-09T10:53:25.989Z,42.55
2024-05-09T10:56:10.971Z,41.40
2024-05-09T10:58:56.074Z,42.77
2024-05-09T11:01:41.268Z,41.77
2024-05-09T11:04:26.809Z,41.12
2024-05-09T11:07:11.689Z,42.46
2024-05-09T11:09:56.772Z,42.67
2024-05-09T11:12:41.702Z,45.62
2024-05-09T11:15:26.617Z,43.78
2024-05-09T11:18:11.704Z,43.71
2024-05-09T11:20:56.521Z,37.42
2024-05-09T11:23:41.859Z,37.35
2024-05-09T11:26:26.839Z,35.89
2024-05-09T11:29:12.538Z,38.72
2024-05-09T11:31:58.347Z,36.84
2024-05-09T11:34:43.492Z,39.87
2024-05-09T11:37:28.514Z,38.94
2024-05-09T11:40:21.184Z,38.59
2024-05-09T11:43:10.477Z,34.97
2024-05-09T11:45:55.471Z,34.52
2024-05-09T11:48:40.594Z,36.63
2024-05-09T11:51:25.857Z,33.81
2024-05-09T11:54:10.900Z,38.07
2024-05-09T11:56:55.686Z,38.75
2024-05-09T11:59:40.571Z,38.95
2024-05-09T12:02:25.625Z,39.85
2024-05-09T12:05:10.660Z,41.02
2024-05-09T12:07:55.477Z,40.82
2024-05-09T12:10:40.780Z,40.59
2024-05-09T12:13:26.253Z,41.41
2024-05-09T12:16:11.142Z,39.31
2024-05-09T12:18:56.221Z,39.22
2024-05-09T12:21:41.036Z,36.48
2024-05-09T12:24:25.947Z,39.56
2024-05-09T12:27:11.001Z,35.29
2024-05-09T12:29:56.003Z,36.25
2024-05-09T12:32:40.961Z,37.45
2024-05-09T12:35:25.871Z,39.32
2024-05-09T12:38:10.883Z,37.88
2024-05-09T12:40:56.123Z,37.46
2024-05-09T12:43:41.404Z,39.55
2024-05-09T12:46:26.528Z,40.28
2024-05-09T12:49:13.746Z,42.34
2024-05-09T12:52:00.169Z,39.61
2024-05-09T12:54:45.214Z,42.96
2024-05-09T12:57:30.287Z,41.60
2024-05-09T13:00:23.505Z,41.30
2024-05-09T13:03:13.334Z,41.16
2024-05-09T13:05:58.612Z,40.31
2024-05-09T13:08:43.666Z,39.56
2024-05-09T13:11:28.784Z,39.44
2024-05-09T13:14:13.776Z,37.50
2024-05-09T13:16:58.969Z,40.99
2024-05-09T13:19:43.901Z,39.98
2024-05-09T13:22:28.966Z,39.35
2024-05-09T13:25:13.931Z,40.64
2024-05-09T13:27:58.979Z,41.20
2024-05-09T13:30:44.364Z,41.68
2024-05-09T13:33:29.329Z,41.97
2024-05-09T13:36:14.267Z,42.48
2024-05-09T13:38:59.201Z,40.88
2024-05-09T13:41:44.139Z,41.75
2024-05-09T13:44:28.931Z,40.92
2024-05-09T13:47:14.033Z,39.96
2024-05-09T13:49:58.956Z,39.46
2024-05-09T13:52:43.907Z,37.34
2024-05-09T13:55:28.954Z,38.03
2024-05-09T13:58:13.949Z,38.67
2024-05-09T14:00:59.028Z,38.35
2024-05-09T14:03:44.068Z,39.61
2024-05-09T14:06:29.111Z,39.39
2024-05-09T14:09:14.003Z,40.53
2024-05-09T14:11:59.075Z,39.47
2024-05-09T14:14:44.106Z,39.41
2024-05-09T14:17:29.184Z,39.02
2024-05-09T14:20:19.456Z,38.34
2024-05-09T14:23:12.668Z,38.13
2024-05-09T14:25:57.640Z,37.42
2024-05-09T14:28:42.551Z,37.80
2024-05-09T14:31:27.697Z,39.26
2024-05-09T14:34:12.737Z,38.43
2024-05-09T14:36:58.052Z,39.19
2024-05-09T14:39:43.005Z,39.30
2024-05-09T14:42:28.152Z,39.05
2024-05-09T14:45:13.090Z,37.92
2024-05-09T14:47:58.166Z,36.16
2024-05-09T14:50:43.285Z,38.72
2024-05-09T14:53:28.018Z,38.38
2024-05-09T14:56:13.017Z,36.14
2024-05-09T14:58:58.000Z,35.59
2024-05-09T15:01:43.056Z,36.36
2024-05-09T15:04:27.917Z,34.95
2024-05-09T15:07:12.746Z,37.08
2024-05-09T15:09:57.864Z,37.19
2024-05-09T15:12:42.912Z,35.57
2024-05-09T15:15:27.938Z,35.96
2024-05-09T15:18:12.975Z,36.01
2024-05-09T15:20:58.536Z,37.24
2024-05-09T15:23:43.359Z,41.26
2024-05-09T15:26:28.456Z,34.46
2024-05-09T15:29:13.462Z,37.22
2024-05-09T15:31:58.495Z,33.84
2024-05-09T15:34:43.489Z,35.35
2024-05-09T15:37:28.429Z,40.20
2024-05-09T15:40:18.520Z,41.49
2024-05-09T15:43:11.789Z,34.62
2024-05-09T15:45:57.145Z,38.47
2024-05-09T15:48:44.528Z,41.27
2024-05-09T15:51:30.159Z,42.36
2024-05-09T15:54:15.113Z,40.73
2024-05-09T15:57:00.062Z,41.07
2024-05-09T15:59:45.078Z,37.75
2024-05-09T16:02:30.071Z,41.77
2024-05-09T16:05:15.182Z,43.16
2024-05-09T16:07:59.929Z,41.90
2024-05-09T16:10:46.007Z,41.67
2024-05-09T16:13:32.079Z,40.66
2024-05-09T16:16:17.143Z,39.98
2024-05-09T16:19:05.310Z,41.37
2024-05-09T16:21:50.148Z,41.78
2024-05-09T16:24:35.263Z,41.26
2024-05-09T16:27:20.305Z,40.88
2024-05-09T16:30:09.418Z,40.63
2024-05-09T16:32:57.332Z,39.94
2024-05-09T16:35:42.197Z,40.53
2024-05-09T16:38:27.098Z,41.77
2024-05-09T16:41:12.095Z,40.45
2024-05-09T16:43:57.076Z,41.79
2024-05-09T16:46:41.926Z,40.30
2024-05-09T16:49:27.015Z,41.03
2024-05-09T16:52:12.027Z,40.45
2024-05-09T16:54:57.024Z,40.21
2024-05-09T16:57:42.088Z,40.39
2024-05-09T17:00:37.909Z,40.98
2024-05-09T17:03:26.649Z,40.75
2024-05-09T17:06:11.646Z,41.83
2024-05-09T17:09:01.853Z,41.31
2024-05-09T17:11:50.060Z,41.29
2024-05-09T17:14:35.025Z,42.51
2024-05-09T17:17:20.128Z,42.24
2024-05-09T17:20:08.155Z,42.41
2024-05-09T17:22:53.369Z,43.45
2024-05-09T17:25:38.452Z,43.59
2024-05-09T17:28:23.518Z,43.82
2024-05-09T17:31:08.401Z,44.08
2024-05-09T17:33:53.488Z,44.49
2024-05-09T17:36:38.877Z,43.93
2024-05-09T17:39:23.753Z,43.46
2024-05-09T17:42:08.865Z,44.74
2024-05-09T17:44:53.908Z,44.51
2024-05-09T17:47:38.881Z,45.62
2024-05-09T17:50:30.400Z,45.82
2024-05-09T17:53:19.452Z,46.06
2024-05-09T17:56:04.556Z,46.77
2024-05-09T17:58:49.536Z,45.72
2024-05-09T18:01:34.465Z,45.59
2024-05-09T18:04:19.610Z,46.02
2024-05-09T18:07:05.024Z,46.78
2024-05-09T18:09:49.860Z,47.30
2024-05-09T18:12:34.778Z,47.39
2024-05-09T18:15:19.668Z,46.72
2024-05-09T18:18:04.964Z,47.18
2024-05-09T18:20:50.130Z,48.13
2024-05-09T18:23:35.091Z,46.83
2024-05-09T18:26:20.284Z,47.26
2024-05-09T18:29:05.246Z,48.26
2024-05-09T18:31:50.284Z,48.67
2024-05-09T18:34:35.278Z,48.60
2024-05-09T18:37:20.450Z,48.80
2024-05-09T18:40:05.890Z,48.61
2024-05-09T18:42:50.733Z,49.68
2024-05-09T18:45:36.095Z,50.15
2024-05-09T18:48:21.441Z,51.26
2024-05-09T18:51:06.494Z,50.11
2024-05-09T18:53:51.407Z,50.10
2024-05-09T18:56:36.381Z,49.64
2024-05-09T18:59:21.330Z,49.74
2024-05-09T19:02:06.623Z,51.47
2024-05-09T19:04:52.012Z,50.37
2024-05-09T19:07:36.940Z,50.14
2024-05-09T19:10:25.608Z,53.26
2024-05-09T19:13:13.454Z,52.57
2024-05-09T19:15:59.406Z,52.04
2024-05-09T19:18:44.501Z,51.47
2024-05-09T19:21:29.404Z,51.97
2024-05-09T19:24:14.492Z,52.89
2024-05-09T19:26:59.757Z,51.23
2024-05-09T19:29:44.513Z,50.84
2024-05-09T19:32:29.622Z,53.03
2024-05-09T19:35:14.463Z,52.82
2024-05-09T19:37:59.391Z,51.55
2024-05-09T19:40:44.383Z,52.45
2024-05-09T19:43:30.693Z,51.98
2024-05-09T19:46:16.766Z,52.44
2024-05-09T19:49:01.824Z,52.70
2024-05-09T19:51:47.204Z,52.69
2024-05-09T19:54:32.217Z,52.97
2024-05-09T19:57:17.334Z,53.50
2024-05-09T20:00:02.529Z,53.76
2024-05-09T20:02:48.531Z,54.39
2024-05-09T20:05:34.304Z,52.93
2024-05-09T20:08:19.393Z,52.80
2024-05-09T20:11:04.285Z,53.19
2024-05-09T20:13:49.414Z,53.60
2024-05-09T20:16:34.553Z,53.85
2024-05-09T20:19:19.601Z,53.40
2024-05-09T20:22:04.494Z,53.08
2024-05-09T20:24:49.510Z,53.71
2024-05-09T20:27:34.440Z,54.02
2024-05-09T20:30:25.533Z,54.25
2024-05-09T20:33:16.436Z,55.46
2024-05-09T20:36:02.492Z,54.60
2024-05-09T20:38:47.800Z,54.55
2024-05-09T20:41:35.174Z,54.42
2024-05-09T20:44:21.006Z,55.02
2024-05-09T20:47:05.922Z,54.90
2024-05-09T20:49:50.946Z,54.80
2024-05-09T20:52:35.894Z,54.64
2024-05-09T20:55:21.121Z,54.25
2024-05-09T20:58:06.105Z,54.71
2024-05-09T21:00:51.232Z,54.71
2024-05-09T21:03:36.156Z,55.23
2024-05-09T21:06:21.141Z,55.33
2024-05-09T21:09:06.073Z,55.63
2024-05-09T21:11:51.130Z,54.91
2024-05-09T21:14:36.059Z,55.12
2024-05-09T21:17:21.018Z,55.98
2024-05-09T21:20:09.371Z,55.31
2024-05-09T21:22:59.094Z,55.79
2024-05-09T21:25:44.206Z,56.19
2024-05-09T21:28:29.101Z,56.43
2024-05-09T21:31:14.077Z,55.96
2024-05-09T21:33:59.060Z,55.93
2024-05-09T21:36:44.054Z,55.50
2024-05-09T21:39:28.829Z,55.41
2024-05-09T21:42:13.821Z,55.88
2024-05-09T21:44:58.833Z,56.19
2024-05-09T21:47:44.062Z,56.04
2024-05-09T21:50:36.865Z,57.53
2024-05-09T21:53:25.545Z,56.44
2024-05-09T21:56:10.462Z,56.91
2024-05-09T21:58:55.441Z,56.50
2024-05-09T22:01:40.626Z,56.44
2024-05-09T22:04:25.668Z,56.69
2024-05-09T22:07:10.692Z,56.71
2024-05-09T22:09:55.583Z,56.54
2024-05-09T22:12:40.636Z,57.01
2024-05-09T22:15:25.696Z,56.98
2024-05-09T22:18:11.559Z,56.98
2024-05-09T22:20:57.155Z,57.19
2024-05-09T22:23:42.086Z,57.41
2024-05-09T22:26:27.204Z,57.44
2024-05-09T22:29:12.121Z,58.58
2024-05-09T22:31:57.116Z,58.28
2024-05-09T22:34:42.043Z,57.90
2024-05-09T22:37:27.016Z,57.45
2024-05-09T22:40:17.535Z,56.96
2024-05-09T22:43:05.738Z,57.81
2024-05-09T22:45:50.711Z,57.38
2024-05-09T22:48:35.638Z,57.18
2024-05-09T22:51:20.886Z,57.01
2024-05-09T22:54:05.992Z,57.22
2024-05-09T22:56:50.893Z,57.59
2024-05-09T22:59:35.946Z,57.80
2024-05-09T23:02:21.096Z,58.07
2024-05-09T23:05:06.169Z,58.32
2024-05-09T23:07:51.646Z,58.62
2024-05-09T23:10:38.015Z,58.17
2024-05-09T23:13:23.747Z,57.41
2024-05-09T23:16:09.281Z,57.61
2024-05-09T23:18:54.278Z,57.74
2024-05-09T23:21:39.209Z,57.40
2024-05-09T23:24:24.155Z,57.53
2024-05-09T23:27:09.192Z,58.16
2024-05-09T23:29:54.221Z,58.20
2024-05-09T23:32:39.363Z,58.15
2024-05-09T23:35:24.358Z,57.74
2024-05-09T23:38:09.366Z,57.76
2024-05-09T23:40:54.558Z,57.67
2024-05-09T23:43:39.349Z,57.33
2024-05-09T23:46:24.501Z,56.63
2024-05-09T23:49:09.494Z,56.28
2024-05-09T23:51:54.541Z,56.41
2024-05-09T23:54:39.685Z,56.50
2024-05-09T23:57:24.721Z,55.73
